Time;durP1;ratioP1;P1;durP2;ratioP2;P2;SDS_P1;SDS_P2;PMS_P1;PMS_P2;Temp;Humidity;BMP_temperature;BMP_pressure;BME280_temperature;BME280_humidity;BME280_pressure;Samples;Min_cycle;Max_cycle;Signal;HPM_P1;HPM_P2
2023/04/30 00:01:27;;;;;;;4.75;2.97;;;3.90;99.90;;;;;;5031838;28;20041;-78
2023/04/30 00:03:53;;;;;;;9.55;3.83;;;3.90;99.90;;;;;;5014005;28;20025;-77
2023/04/30 00:06:18;;;;;;;8.52;3.53;;;3.90;99.90;;;;;;5032257;28;20032;-78
2023/04/30 00:08:44;;;;;;;14.10;3.72;;;3.80;99.90;;;;;;5031949;28;20033;-78
2023/04/30 00:11:09;;;;;;;8.60;2.88;;;3.80;99.90;;;;;;5014495;28;20029;-78
2023/04/30 00:13:35;;;;;;;9.35;4.10;;;3.70;99.90;;;;;;5027890;28;20037;-78
2023/04/30 00:16:00;;;;;;;7.03;2.88;;;3.70;99.90;;;;;;5021091;28;20022;-78
2023/04/30 00:18:26;;;;;;;6.38;3.08;;;3.60;99.90;;;;;;5016658;28;20029;-78
2023/04/30 00:20:52;;;;;;;14.73;3.42;;;3.60;99.90;;;;;;5032138;28;20030;-78
2023/04/30 00:23:18;;;;;;;5.85;3.28;;;3.60;99.90;;;;;;5020628;28;20524;-78
2023/04/30 00:25:43;;;;;;;7.85;3.65;;;3.50;99.90;;;;;;5011593;28;20035;-78
2023/04/30 00:28:09;;;;;;;8.35;3.35;;;3.50;99.90;;;;;;5033984;28;20151;-78
2023/04/30 00:30:34;;;;;;;12.15;3.70;;;3.50;99.90;;;;;;5019790;28;20092;-77
2023/04/30 00:33:00;;;;;;;8.02;3.85;;;3.40;99.90;;;;;;5033275;28;20430;-78
2023/04/30 00:35:25;;;;;;;6.43;3.15;;;3.40;99.90;;;;;;5016860;28;20057;-79
2023/04/30 00:37:51;;;;;;;7.10;3.30;;;3.40;99.90;;;;;;5024238;28;20037;-78
2023/04/30 00:40:16;;;;;;;5.13;3.35;;;3.30;99.90;;;;;;5016102;28;20022;-78
2023/04/30 00:42:42;;;;;;;10.18;3.75;;;3.30;99.90;;;;;;5017104;28;20022;-78
2023/04/30 00:45:08;;;;;;;11.93;3.83;;;3.30;99.90;;;;;;5019821;28;20017;-78
2023/04/30 00:47:33;;;;;;;7.38;3.72;;;3.20;99.90;;;;;;5019628;28;20022;-78
2023/04/30 00:49:59;;;;;;;5.40;3.35;;;3.20;99.90;;;;;;5046492;28;20638;-78
2023/04/30 00:52:26;;;;;;;3.85;3.17;;;3.20;99.90;;;;;;5013694;28;20060;-78
2023/04/30 00:54:53;;;;;;;5.97;3.00;;;3.10;99.90;;;;;;5029397;28;20030;-77
2023/04/30 00:57:19;;;;;;;5.45;2.95;;;3.00;99.90;;;;;;5028748;28;20435;-78
2023/04/30 00:59:45;;;;;;;5.70;3.33;;;3.10;99.90;;;;;;5028248;28;20026;-77
2023/04/30 01:02:12;;;;;;;8.15;3.78;;;3.00;99.90;;;;;;5023573;28;20040;-78
2023/04/30 01:04:38;;;;;;;10.15;4.22;;;3.00;99.90;;;;;;5016245;28;20026;-77
2023/04/30 01:07:04;;;;;;;6.07;3.92;;;3.00;99.90;;;;;;5021197;28;20048;-77
2023/04/30 01:09:30;;;;;;;15.68;4.13;;;3.00;99.90;;;;;;5017046;28;20029;-77
2023/04/30 01:12:20;;;;;;;7.72;3.60;;;3.00;99.90;;;;;;5035301;28;20087;-78
2023/04/30 01:15:00;;;;;;;9.30;4.10;;;3.00;99.90;;;;;;5025331;28;20385;-77
2023/04/30 01:17:47;;;;;;;8.45;4.03;;;2.90;99.90;;;;;;5015254;28;20116;-78
2023/04/30 01:20:12;;;;;;;7.97;4.78;;;2.90;99.90;;;;;;5028773;28;20523;-79
2023/04/30 01:23:10;;;;;;;10.20;3.80;;;2.80;99.90;;;;;;5031478;28;20052;-78
2023/04/30 01:25:38;;;;;;;10.63;3.92;;;2.80;99.90;;;;;;5008868;28;20017;-78
2023/04/30 01:28:05;;;;;;;6.90;4.35;;;2.80;99.90;;;;;;5011249;28;20033;-78
2023/04/30 01:30:32;;;;;;;7.10;3.97;;;2.70;99.90;;;;;;5028851;28;20049;-78
2023/04/30 01:32:58;;;;;;;10.68;4.45;;;2.70;99.90;;;;;;5015190;28;20025;-78
2023/04/30 01:36:02;;;;;;;7.43;4.53;;;2.70;99.90;;;;;;5030754;28;20028;-77
2023/04/30 01:38:53;;;;;;;6.47;3.88;;;2.70;99.90;;;;;;5021357;28;20016;-78
2023/04/30 01:41:24;;;;;;;11.35;4.43;;;2.60;99.90;;;;;;5013628;28;20029;-78
2023/04/30 01:44:08;;;;;;;14.70;4.70;;;2.60;99.90;;;;;;5034187;28;20029;-79
2023/04/30 01:46:34;;;;;;;7.88;4.28;;;2.50;99.90;;;;;;5028794;28;20361;-78
2023/04/30 01:49:13;;;;;;;8.70;4.45;;;2.50;99.90;;;;;;5033482;28;20059;-79
2023/04/30 01:51:41;;;;;;;14.55;4.65;;;2.50;99.90;;;;;;5041859;28;20493;-78
2023/04/30 01:54:46;;;;;;;12.98;5.28;;;2.50;99.90;;;;;;5039902;28;20028;-78
2023/04/30 01:57:21;;;;;;;10.00;4.32;;;2.40;99.90;;;;;;5035192;28;20115;-78
2023/04/30 01:59:47;;;;;;;7.70;4.05;;;2.40;99.90;;;;;;5017806;28;20500;-78
2023/04/30 02:02:12;;;;;;;10.65;4.50;;;2.40;99.90;;;;;;5018412;28;20041;-78
2023/04/30 02:04:38;;;;;;;11.90;4.80;;;2.40;99.90;;;;;;5017696;28;20013;-78
2023/04/30 02:07:04;;;;;;;9.85;4.72;;;2.30;99.90;;;;;;5023035;28;20032;-79
2023/04/30 02:09:29;;;;;;;8.35;4.60;;;2.30;99.90;;;;;;5034767;28;20033;-79
2023/04/30 02:11:56;;;;;;;7.50;4.78;;;2.30;99.90;;;;;;5036978;28;20416;-79
2023/04/30 02:14:22;;;;;;;8.75;4.30;;;2.30;99.90;;;;;;5021328;28;20029;-79
2023/04/30 02:16:47;;;;;;;11.18;4.97;;;2.20;99.90;;;;;;5017440;28;20546;-79
2023/04/30 02:19:13;;;;;;;8.80;4.25;;;2.20;99.90;;;;;;5025241;28;20025;-79
2023/04/30 02:21:38;;;;;;;9.80;4.90;;;2.20;99.90;;;;;;5020502;28;20604;-78
2023/04/30 02:24:05;;;;;;;7.93;4.57;;;2.20;99.90;;;;;;5035687;28;20026;-79
2023/04/30 02:26:30;;;;;;;13.02;5.18;;;2.10;99.90;;;;;;5017536;28;20033;-79
2023/04/30 02:28:56;;;;;;;10.30;4.95;;;2.10;99.90;;;;;;5023899;28;20021;-78
2023/04/30 02:31:21;;;;;;;11.70;5.15;;;2.10;99.90;;;;;;5039594;28;20462;-79
2023/04/30 02:33:47;;;;;;;9.13;4.38;;;2.10;99.90;;;;;;5046419;28;20033;-78
2023/04/30 02:36:12;;;;;;;8.20;4.63;;;2.00;99.90;;;;;;5027354;28;20032;-78
2023/04/30 02:38:38;;;;;;;11.02;4.75;;;2.00;99.90;;;;;;5033874;28;20017;-78
2023/04/30 02:41:03;;;;;;;10.32;4.78;;;2.00;99.90;;;;;;5040820;28;20064;-78
2023/04/30 02:43:29;;;;;;;12.82;4.53;;;2.00;99.90;;;;;;5020564;28;20029;-79
2023/04/30 02:45:55;;;;;;;7.53;5.13;;;2.00;99.90;;;;;;5022625;28;20029;-77
2023/04/30 02:48:20;;;;;;;7.63;3.97;;;2.00;99.90;;;;;;5018776;28;20479;-78
2023/04/30 02:50:46;;;;;;;10.73;4.90;;;1.90;99.90;;;;;;5039262;28;20031;-78
2023/04/30 02:53:11;;;;;;;12.73;5.72;;;1.90;99.90;;;;;;5040849;28;20484;-78
2023/04/30 02:55:37;;;;;;;6.20;4.40;;;1.90;99.90;;;;;;5021104;28;20550;-79
2023/04/30 02:58:02;;;;;;;9.60;4.68;;;1.90;99.90;;;;;;5040551;28;20036;-78
2023/04/30 03:00:28;;;;;;;10.93;4.97;;;1.90;99.90;;;;;;5017919;28;20047;-78
2023/04/30 03:02:53;;;;;;;8.38;4.93;;;1.80;99.90;;;;;;5022325;28;20042;-78
2023/04/30 03:05:19;;;;;;;6.90;4.68;;;1.80;99.90;;;;;;5034501;28;20051;-79
2023/04/30 03:07:45;;;;;;;7.50;4.47;;;1.70;99.90;;;;;;5020127;28;20061;-78
2023/04/30 03:10:10;;;;;;;11.20;5.47;;;1.70;99.90;;;;;;5036008;28;20029;-78
2023/04/30 03:12:35;;;;;;;8.85;4.93;;;1.70;99.90;;;;;;5028972;28;20064;-78
2023/04/30 03:15:01;;;;;;;8.40;5.32;;;1.70;99.90;;;;;;5022960;28;20025;-78
2023/04/30 03:17:27;;;;;;;9.15;4.45;;;1.70;99.90;;;;;;5016521;28;20468;-78
2023/04/30 03:19:52;;;;;;;10.25;4.60;;;1.70;99.90;;;;;;5014481;28;20113;-77
2023/04/30 03:22:19;;;;;;;9.80;5.47;;;1.60;99.90;;;;;;5036831;28;20526;-78
2023/04/30 03:24:45;;;;;;;7.90;4.32;;;1.60;99.90;;;;;;5017219;28;20388;-78
2023/04/30 03:27:10;;;;;;;9.43;5.38;;;1.70;99.90;;;;;;5020957;28;20045;-78
2023/04/30 03:29:36;;;;;;;16.50;5.32;;;1.60;99.90;;;;;;5025824;28;20036;-78
2023/04/30 03:32:01;;;;;;;12.05;6.32;;;1.70;99.90;;;;;;5021269;28;20029;-78
2023/04/30 03:34:27;;;;;;;10.32;5.70;;;1.70;99.90;;;;;;5038647;28;20037;-78
2023/04/30 03:36:53;;;;;;;11.23;5.75;;;1.70;99.90;;;;;;5013672;28;20033;-79
2023/04/30 03:39:18;;;;;;;9.07;5.70;;;1.60;99.90;;;;;;5019759;28;20369;-78
2023/04/30 03:41:44;;;;;;;9.50;4.85;;;1.60;99.90;;;;;;5040781;28;20088;-78
2023/04/30 03:44:14;;;;;;;8.98;4.82;;;1.50;99.90;;;;;;5019497;28;20037;-78
2023/04/30 03:46:41;;;;;;;9.02;4.90;;;1.50;99.90;;;;;;5017011;28;20648;-78
2023/04/30 03:49:06;;;;;;;9.82;5.60;;;1.50;99.90;;;;;;5015270;28;20492;-79
2023/04/30 03:51:32;;;;;;;10.93;5.25;;;1.50;99.90;;;;;;5017183;28;20021;-79
2023/04/30 03:53:57;;;;;;;10.75;5.20;;;1.50;99.90;;;;;;5022368;28;20397;-79
2023/04/30 03:56:25;;;;;;;7.35;4.70;;;1.50;99.90;;;;;;5018870;28;20111;-78
2023/04/30 03:58:50;;;;;;;8.40;5.22;;;1.50;99.90;;;;;;5015766;28;20028;-79
2023/04/30 04:01:16;;;;;;;12.35;6.30;;;1.50;99.90;;;;;;5017906;28;20513;-77
2023/04/30 04:03:41;;;;;;;7.13;5.03;;;1.50;99.90;;;;;;5033248;28;20624;-79
2023/04/30 04:06:07;;;;;;;10.95;5.85;;;1.40;99.90;;;;;;5014397;28;20040;-79
2023/04/30 04:08:32;;;;;;;11.63;5.22;;;1.40;99.90;;;;;;5039218;28;20017;-78
2023/04/30 04:10:58;;;;;;;8.48;5.18;;;1.40;99.90;;;;;;5033495;28;20049;-78
2023/04/30 04:13:24;;;;;;;8.85;4.85;;;1.40;99.90;;;;;;5035195;28;21575;-78
2023/04/30 04:15:49;;;;;;;12.43;5.65;;;1.40;99.90;;;;;;5032298;28;20029;-78
2023/04/30 04:18:15;;;;;;;10.30;5.03;;;1.40;99.90;;;;;;5031215;28;20032;-78
2023/04/30 04:20:40;;;;;;;8.07;5.13;;;1.40;99.90;;;;;;5019903;28;20051;-77
2023/04/30 04:23:06;;;;;;;7.50;4.97;;;1.40;99.90;;;;;;5020189;28;20533;-78
2023/04/30 04:25:32;;;;;;;9.88;5.10;;;1.40;99.90;;;;;;5014762;28;20602;-78
2023/04/30 04:27:57;;;;;;;11.20;5.03;;;1.40;99.90;;;;;;5013130;28;20496;-79
2023/04/30 04:30:23;;;;;;;11.52;5.68;;;1.40;99.90;;;;;;5012848;28;20151;-78
2023/04/30 04:32:52;;;;;;;11.70;5.35;;;1.40;99.90;;;;;;5016711;28;20030;-79
2023/04/30 04:35:18;;;;;;;9.05;4.85;;;1.40;99.90;;;;;;5031558;28;20048;-78
2023/04/30 04:37:43;;;;;;;7.63;5.18;;;1.50;99.90;;;;;;5019125;28;20029;-78
2023/04/30 04:40:12;;;;;;;9.77;4.70;;;1.50;99.90;;;;;;5023115;28;20546;-78
2023/04/30 04:42:37;;;;;;;10.38;5.30;;;1.50;99.90;;;;;;5007543;28;20029;-77
2023/04/30 04:45:07;;;;;;;10.80;5.57;;;1.50;99.90;;;;;;5036357;28;20369;-78
2023/04/30 04:47:32;;;;;;;8.77;5.15;;;1.50;99.90;;;;;;5032358;28;20025;-79
2023/04/30 04:49:58;;;;;;;8.90;5.38;;;1.50;99.90;;;;;;5030399;28;20025;-79
2023/04/30 04:52:23;;;;;;;9.52;4.75;;;1.50;99.90;;;;;;5012732;28;20116;-78
2023/04/30 04:54:49;;;;;;;9.73;4.88;;;1.60;99.90;;;;;;5016265;28;20021;-78
2023/04/30 04:57:15;;;;;;;10.18;5.57;;;1.60;99.90;;;;;;5021277;28;20023;-78
2023/04/30 04:59:40;;;;;;;10.45;4.90;;;1.70;99.90;;;;;;5031823;28;20025;-79
2023/04/30 05:02:06;;;;;;;9.65;5.22;;;1.70;99.90;;;;;;5016482;28;20050;-78
2023/04/30 05:04:31;;;;;;;12.52;4.47;;;1.70;99.90;;;;;;5013110;28;20018;-78
2023/04/30 05:06:57;;;;;;;9.02;5.00;;;1.70;99.90;;;;;;5033711;28;20264;-78
2023/04/30 05:09:22;;;;;;;11.85;4.50;;;1.80;99.90;;;;;;5034863;28;20082;-77
2023/04/30 05:11:48;;;;;;;6.43;4.40;;;1.80;99.90;;;;;;5015413;28;20018;-78
2023/04/30 05:14:14;;;;;;;9.95;4.55;;;1.80;99.90;;;;;;5030713;28;20026;-77
2023/04/30 05:16:39;;;;;;;11.52;5.30;;;1.90;99.90;;;;;;5006378;28;20064;-78
2023/04/30 05:19:06;;;;;;;11.32;5.38;;;1.90;99.90;;;;;;5020928;28;20043;-78
2023/04/30 05:21:31;;;;;;;8.68;4.97;;;2.00;99.90;;;;;;5017565;28;20030;-77
2023/04/30 05:23:57;;;;;;;20.80;6.95;;;2.00;99.90;;;;;;5012536;28;20119;-77
2023/04/30 05:26:25;;;;;;;11.73;5.25;;;2.10;99.90;;;;;;5024669;28;20040;-78
2023/04/30 05:28:51;;;;;;;9.57;5.28;;;2.10;99.90;;;;;;5017549;28;20068;-78
2023/04/30 05:31:17;;;;;;;11.30;5.25;;;2.20;99.90;;;;;;5031623;28;20052;-78
2023/04/30 05:33:42;;;;;;;13.82;5.75;;;2.20;99.90;;;;;;5034629;28;20025;-77
2023/04/30 05:36:09;;;;;;;6.03;4.70;;;2.30;99.90;;;;;;5021020;28;20022;-79
2023/04/30 05:38:35;;;;;;;10.10;5.28;;;2.40;99.90;;;;;;5017500;28;20021;-77
2023/04/30 05:41:00;;;;;;;6.88;4.40;;;2.50;99.90;;;;;;5019867;28;20408;-79
2023/04/30 05:43:26;;;;;;;8.13;4.80;;;2.60;99.90;;;;;;5014599;28;20025;-78
2023/04/30 05:45:51;;;;;;;8.93;4.65;;;2.70;99.90;;;;;;5030698;28;20026;-78
2023/04/30 05:48:17;;;;;;;9.32;5.05;;;2.80;99.90;;;;;;5018026;28;20034;-79
2023/04/30 05:50:45;;;;;;;9.77;5.45;;;2.90;99.90;;;;;;5020742;28;20035;-78
2023/04/30 05:53:11;;;;;;;7.13;5.30;;;2.90;99.90;;;;;;5016949;28;20032;-79
2023/04/30 05:55:37;;;;;;;11.15;4.90;;;3.10;99.90;;;;;;5019357;28;20025;-78
2023/04/30 05:58:03;;;;;;;8.07;4.75;;;3.20;99.90;;;;;;5022703;28;20533;-79
2023/04/30 06:00:31;;;;;;;10.88;4.65;;;3.30;99.90;;;;;;5033700;28;20044;-78
2023/04/30 06:02:56;;;;;;;14.23;4.63;;;3.40;99.90;;;;;;5035022;28;20033;-78
2023/04/30 06:05:22;;;;;;;11.13;5.47;;;3.50;99.90;;;;;;5033985;28;20402;-79
2023/04/30 06:07:47;;;;;;;10.15;4.47;;;3.60;99.90;;;;;;5019938;28;20018;-78
2023/04/30 06:10:13;;;;;;;9.32;3.65;;;3.80;99.90;;;;;;5036476;28;20139;-79
2023/04/30 06:12:39;;;;;;;7.57;4.05;;;3.90;99.90;;;;;;5018997;28;20433;-79
2023/04/30 06:15:05;;;;;;;10.25;4.65;;;4.00;99.90;;;;;;5014880;28;20026;-78
2023/04/30 06:17:31;;;;;;;9.02;4.15;;;4.10;99.90;;;;;;5013932;28;20025;-78
2023/04/30 06:19:59;;;;;;;7.82;4.90;;;4.30;99.90;;;;;;5036141;28;20104;-78
2023/04/30 06:22:25;;;;;;;7.60;3.38;;;4.40;99.90;;;;;;5020441;28;20025;-79
2023/04/30 06:24:50;;;;;;;14.20;3.55;;;4.60;99.90;;;;;;5016652;28;20091;-78
2023/04/30 06:27:16;;;;;;;8.95;3.65;;;4.80;99.90;;;;;;5010381;28;20117;-78
2023/04/30 06:29:41;;;;;;;7.47;4.35;;;5.00;99.90;;;;;;5013617;28;20044;-79
2023/04/30 06:32:07;;;;;;;8.15;3.75;;;5.20;99.90;;;;;;5011119;28;20550;-78
2023/04/30 06:34:33;;;;;;;11.48;4.05;;;5.50;99.90;;;;;;5014437;28;20026;-78
2023/04/30 06:36:58;;;;;;;5.15;2.70;;;5.70;99.90;;;;;;5011717;28;20021;-77
2023/04/30 06:39:24;;;;;;;11.88;3.22;;;5.90;99.90;;;;;;5036924;28;20560;-78
2023/04/30 06:41:50;;;;;;;6.93;3.38;;;6.10;99.90;;;;;;5032765;28;20033;-78
2023/04/30 06:44:17;;;;;;;6.80;2.25;;;6.20;99.90;;;;;;5027042;28;20036;-78
2023/04/30 06:46:43;;;;;;;8.05;3.05;;;6.40;99.90;;;;;;5023017;28;20927;-79
2023/04/30 06:49:08;;;;;;;5.32;2.63;;;6.50;99.90;;;;;;5018881;28;20124;-78
2023/04/30 06:51:34;;;;;;;8.32;2.92;;;6.60;99.90;;;;;;5034031;28;20030;-79
2023/04/30 06:54:00;;;;;;;3.22;2.33;;;6.80;99.90;;;;;;5025909;28;20403;-78
2023/04/30 06:56:25;;;;;;;6.45;3.28;;;7.00;99.90;;;;;;5019670;28;20118;-78
2023/04/30 06:58:51;;;;;;;8.43;2.60;;;7.10;99.90;;;;;;5027482;28;20026;-78
2023/04/30 07:01:17;;;;;;;6.90;2.55;;;7.20;99.90;;;;;;5028814;28;20404;-78
2023/04/30 07:03:42;;;;;;;5.03;2.28;;;7.40;99.90;;;;;;5026698;28;20083;-78
2023/04/30 07:06:08;;;;;;;10.88;2.88;;;7.60;99.90;;;;;;5016761;28;20128;-79
2023/04/30 07:08:33;;;;;;;4.93;2.50;;;7.90;99.90;;;;;;5028092;28;20071;-78
2023/04/30 07:10:59;;;;;;;8.00;2.65;;;7.90;99.90;;;;;;5013637;28;20551;-78
2023/04/30 07:13:25;;;;;;;8.38;3.03;;;8.10;99.90;;;;;;5031145;28;20088;-78
2023/04/30 07:15:50;;;;;;;7.53;2.70;;;8.30;99.90;;;;;;5016990;28;20028;-78
2023/04/30 07:18:16;;;;;;;4.93;1.92;;;8.40;99.90;;;;;;5017509;28;20017;-79
2023/04/30 07:20:41;;;;;;;5.57;2.08;;;8.40;99.90;;;;;;5014791;28;20026;-78
2023/04/30 07:23:07;;;;;;;7.40;2.33;;;8.70;99.90;;;;;;5021386;28;20025;-79
2023/04/30 07:25:34;;;;;;;4.25;2.40;;;8.80;99.90;;;;;;5028118;28;20060;-77
2023/04/30 07:27:59;;;;;;;5.25;2.90;;;8.90;99.90;;;;;;5030423;28;20035;-78
2023/04/30 07:30:25;;;;;;;5.75;2.20;;;8.90;99.90;;;;;;5031827;28;20045;-78
2023/04/30 07:32:51;;;;;;;4.15;2.28;;;9.10;99.90;;;;;;5028904;28;20038;-78
2023/04/30 07:35:16;;;;;;;6.30;2.25;;;9.30;99.90;;;;;;5018853;28;20021;-79
2023/04/30 07:37:42;;;;;;;3.85;2.30;;;9.30;99.90;;;;;;5030175;28;20120;-79
2023/04/30 07:40:11;;;;;;;8.98;2.72;;;9.20;99.90;;;;;;5026684;28;20353;-78
2023/04/30 07:42:46;;;;;;;7.47;2.50;;;9.20;99.90;;;;;;5033120;28;20029;-78
2023/04/30 07:45:12;;;;;;;7.65;3.03;;;9.40;99.90;;;;;;5013958;28;20487;-78
2023/04/30 07:47:38;;;;;;;6.30;2.60;;;9.70;99.90;;;;;;5012663;28;20030;-77
2023/04/30 07:50:04;;;;;;;4.65;2.38;;;10.00;99.90;;;;;;5024437;28;20045;-77
2023/04/30 07:52:30;;;;;;;4.15;2.25;;;10.20;99.90;;;;;;5021586;28;20037;-78
2023/04/30 07:54:55;;;;;;;5.80;2.08;;;10.30;99.90;;;;;;5018234;28;20025;-77
2023/04/30 07:57:21;;;;;;;5.80;2.28;;;10.60;99.90;;;;;;5021121;28;20021;-79
2023/04/30 07:59:46;;;;;;;3.85;1.92;;;10.60;99.90;;;;;;5014789;28;20088;-78
2023/04/30 08:02:12;;;;;;;6.95;2.13;;;10.40;97.20;;;;;;5025321;28;20127;-78
2023/04/30 08:04:37;;;;;;;6.40;2.05;;;10.30;98.40;;;;;;5013616;28;20542;-78
2023/04/30 08:07:03;;;;;;;5.13;1.80;;;10.40;98.90;;;;;;5019715;28;20120;-78
2023/04/30 08:09:29;;;;;;;3.08;1.98;;;10.60;98.50;;;;;;5018756;28;20037;-78
2023/04/30 08:11:55;;;;;;;9.90;2.13;;;10.60;98.40;;;;;;5017982;28;20030;-78
2023/04/30 08:14:21;;;;;;;6.30;2.20;;;10.30;96.80;;;;;;5015981;28;20052;-78
2023/04/30 08:16:46;;;;;;;9.48;2.20;;;10.30;97.90;;;;;;5027497;28;20022;-79
2023/04/30 08:19:12;;;;;;;4.95;2.28;;;10.10;96.90;;;;;;5044648;28;20079;-78
2023/04/30 08:21:38;;;;;;;7.00;2.17;;;10.00;98.40;;;;;;5021533;28;20037;-78
2023/04/30 08:24:04;;;;;;;5.18;1.80;;;10.30;99.40;;;;;;5043228;28;20568;-78
2023/04/30 08:26:30;;;;;;;7.43;2.75;;;10.80;99.10;;;;;;5034256;28;20029;-79
2023/04/30 08:28:55;;;;;;;6.20;2.13;;;11.00;97.50;;;;;;5023692;28;20033;-78
2023/04/30 08:31:21;;;;;;;6.65;2.65;;;11.00;97.60;;;;;;5033202;28;20112;-78
2023/04/30 08:33:46;;;;;;;5.65;2.80;;;11.50;97.60;;;;;;5037947;28;20029;-78
2023/04/30 08:36:12;;;;;;;4.45;2.03;;;11.40;96.60;;;;;;5032128;28;20760;-78
2023/04/30 08:38:37;;;;;;;3.60;2.00;;;11.40;97.70;;;;;;5041849;28;20010;-78
2023/04/30 08:41:13;;;;;;;5.75;2.50;;;11.40;94.50;;;;;;5015305;28;20041;-78
2023/04/30 08:43:40;;;;;;;6.55;1.80;;;11.30;94.70;;;;;;5033873;28;20407;-78
2023/04/30 08:46:06;;;;;;;4.75;2.00;;;11.40;95.50;;;;;;5013042;28;20041;-78
2023/04/30 08:48:32;;;;;;;6.65;2.33;;;11.70;96.60;;;;;;5010404;28;20109;-78
2023/04/30 08:51:02;;;;;;;5.25;2.00;;;11.90;93.40;;;;;;5017147;28;20075;-77
2023/04/30 08:53:30;;;;;;;7.60;1.83;;;11.60;95.10;;;;;;5024543;28;20527;-77
2023/04/30 08:55:56;;;;;;;7.60;2.70;;;11.50;94.10;;;;;;5020512;28;20349;-77
2023/04/30 08:58:22;;;;;;;6.40;2.30;;;11.50;94.50;;;;;;5035254;28;20087;-78
2023/04/30 09:00:47;;;;;;;2.65;1.70;;;11.30;93.90;;;;;;5016572;28;20037;-78
2023/04/30 09:03:13;;;;;;;3.50;2.05;;;11.30;95.30;;;;;;5032152;28;20298;-78
2023/04/30 09:05:39;;;;;;;3.45;2.10;;;11.40;93.10;;;;;;5031380;28;20061;-77
2023/04/30 09:08:07;;;;;;;3.65;1.55;;;11.50;95.70;;;;;;5017172;28;20022;-78
2023/04/30 09:10:33;;;;;;;3.13;1.85;;;11.90;95.30;;;;;;5029456;28;20027;-78
2023/04/30 09:13:01;;;;;;;5.93;2.33;;;11.90;93.20;;;;;;5019692;28;20022;-78
2023/04/30 09:15:27;;;;;;;4.25;2.00;;;11.90;93.70;;;;;;5017285;28;20070;-78
2023/04/30 09:18:18;;;;;;;2.58;2.03;;;12.00;94.60;;;;;;5011672;28;20032;-78
2023/04/30 09:21:00;;;;;;;5.60;2.00;;;12.30;95.20;;;;;;5022192;28;20549;-76
2023/04/30 09:23:25;;;;;;;2.92;1.77;;;12.00;90.30;;;;;;5035053;28;20064;-77
2023/04/30 09:25:51;;;;;;;2.88;1.65;;;12.30;96.20;;;;;;5012801;28;20075;-78
2023/04/30 09:28:17;;;;;;;3.38;2.22;;;12.60;91.70;;;;;;5014920;28;20483;-78
2023/04/30 09:30:42;;;;;;;6.80;2.00;;;12.60;91.30;;;;;;5029486;28;20037;-78
2023/04/30 09:33:09;;;;;;;4.32;2.53;;;12.50;91.40;;;;;;5011089;28;20083;-78
2023/04/30 09:35:40;;;;;;;5.00;1.90;;;12.60;93.60;;;;;;5019503;28;20033;-78
2023/04/30 09:38:05;;;;;;;4.85;1.95;;;12.90;92.10;;;;;;5027088;28;20120;-78
2023/04/30 09:40:35;;;;;;;5.60;1.95;;;13.10;92.10;;;;;;5029408;28;20144;-78
2023/04/30 09:43:02;;;;;;;4.32;2.25;;;13.10;86.80;;;;;;5014782;28;20074;-78
2023/04/30 09:45:40;;;;;;;3.20;1.95;;;13.10;90.00;;;;;;5019405;28;20025;-78
2023/04/30 09:48:09;;;;;;;4.47;1.75;;;13.00;95.30;;;;;;5014217;28;20040;-78
2023/04/30 09:50:39;;;;;;;4.13;1.90;;;13.00;91.50;;;;;;5017506;28;20535;-78
2023/04/30 09:53:07;;;;;;;2.60;1.95;;;13.30;93.50;;;;;;5010821;28;20028;-78
2023/04/30 09:55:35;;;;;;;4.00;2.03;;;13.40;94.40;;;;;;5021471;28;20170;-78
2023/04/30 09:58:06;;;;;;;4.10;1.95;;;13.40;90.40;;;;;;5010513;28;20028;-79
2023/04/30 10:00:33;;;;;;;5.25;2.20;;;13.40;91.40;;;;;;5008646;28;20628;-79
2023/04/30 10:03:06;;;;;;;5.53;2.00;;;13.30;91.10;;;;;;5017699;28;20071;-78
2023/04/30 10:05:52;;;;;;;4.47;2.08;;;13.50;90.00;;;;;;5016247;28;20029;-78
2023/04/30 10:08:28;;;;;;;4.28;1.92;;;13.50;92.00;;;;;;5032131;28;20013;-79
2023/04/30 10:11:06;;;;;;;6.88;3.10;;;13.10;87.30;;;;;;5022327;28;20112;-79
2023/04/30 10:13:42;;;;;;;4.95;2.25;;;12.40;88.40;;;;;;5020095;28;20112;-78
2023/04/30 10:16:20;;;;;;;3.80;2.10;;;12.20;92.20;;;;;;5016760;28;20036;-79
2023/04/30 10:18:50;;;;;;;4.13;2.45;;;12.20;91.30;;;;;;5031644;28;20107;-78
2023/04/30 10:21:17;;;;;;;5.72;2.00;;;12.20;91.90;;;;;;5037522;28;20516;-78
2023/04/30 10:23:43;;;;;;;3.85;2.28;;;12.30;91.50;;;;;;5015789;28;20368;-79
2023/04/30 10:26:11;;;;;;;2.95;2.08;;;12.20;90.40;;;;;;5025085;28;20051;-78
2023/04/30 10:28:37;;;;;;;7.75;2.03;;;12.10;92.00;;;;;;5010971;28;20522;-78
2023/04/30 10:31:04;;;;;;;5.53;2.47;;;12.10;90.60;;;;;;5012892;28;20124;-79
2023/04/30 10:33:41;;;;;;;5.93;2.10;;;12.30;92.90;;;;;;5014867;28;20029;-78
2023/04/30 10:36:12;;;;;;;5.18;2.65;;;12.70;92.10;;;;;;5033806;28;20040;-78
2023/04/30 10:38:38;;;;;;;6.53;2.70;;;12.70;90.80;;;;;;5016122;28;20495;-78
2023/04/30 10:41:06;;;;;;;5.80;2.22;;;12.60;90.00;;;;;;5026560;28;20152;-78
2023/04/30 10:43:34;;;;;;;5.28;2.20;;;12.20;89.20;;;;;;5019105;28;20027;-78
2023/04/30 10:46:01;;;;;;;6.20;2.30;;;11.90;90.00;;;;;;5038788;28;20057;-78
2023/04/30 10:48:29;;;;;;;4.05;1.92;;;12.00;91.20;;;;;;5030325;28;20021;-78
2023/04/30 10:50:58;;;;;;;3.10;2.10;;;12.00;90.00;;;;;;5019491;28;20021;-78
2023/04/30 10:53:27;;;;;;;2.72;1.73;;;12.10;90.00;;;;;;5015396;28;20024;-78
2023/04/30 10:55:56;;;;;;;5.55;2.30;;;12.30;92.00;;;;;;5014934;28;20155;-77
2023/04/30 10:58:28;;;;;;;3.10;2.03;;;12.40;87.50;;;;;;5041143;28;20120;-79
2023/04/30 11:01:09;;;;;;;3.03;1.88;;;12.00;91.10;;;;;;5016535;28;20078;-78
2023/04/30 11:03:36;;;;;;;2.42;2.22;;;12.10;90.00;;;;;;5020118;28;20538;-79
2023/04/30 11:06:11;;;;;;;3.95;2.47;;;12.30;91.40;;;;;;5034847;28;20052;-78
2023/04/30 11:08:38;;;;;;;4.00;2.00;;;12.40;90.40;;;;;;5019406;28;20022;-78
2023/04/30 11:11:04;;;;;;;3.42;2.00;;;12.60;90.60;;;;;;5015913;28;20132;-78
2023/04/30 11:13:46;;;;;;;5.43;2.08;;;12.90;90.20;;;;;;5037972;28;20099;-79
2023/04/30 11:16:14;;;;;;;3.40;1.75;;;12.90;88.70;;;;;;5019381;28;20397;-78
2023/04/30 11:18:44;;;;;;;3.15;2.00;;;12.80;89.70;;;;;;5028579;28;20072;-77
2023/04/30 11:21:11;;;;;;;4.88;1.95;;;13.00;92.30;;;;;;5019285;28;20048;-79
2023/04/30 11:23:41;;;;;;;3.50;2.10;;;13.20;87.10;;;;;;5028781;28;20037;-78
2023/04/30 11:26:06;;;;;;;6.15;2.00;;;13.00;86.80;;;;;;5032255;28;20028;-77
2023/04/30 11:28:36;;;;;;;2.60;2.00;;;12.90;88.20;;;;;;5019505;28;20036;-77
2023/04/30 11:31:02;;;;;;;5.07;2.53;;;12.80;86.90;;;;;;5016215;28;20037;-77
2023/04/30 11:33:29;;;;;;;3.90;2.03;;;12.70;85.90;;;;;;5040243;28;20025;-77
2023/04/30 11:35:56;;;;;;;4.03;2.35;;;12.60;88.40;;;;;;5013103;28;20564;-77
2023/04/30 11:38:27;;;;;;;8.63;1.98;;;12.60;86.90;;;;;;5015519;28;20104;-77
2023/04/30 11:40:53;;;;;;;3.53;1.52;;;12.30;85.10;;;;;;5030622;28;20039;-78
2023/04/30 11:43:31;;;;;;;7.43;2.45;;;12.50;88.20;;;;;;5011942;28;20029;-77
2023/04/30 11:46:14;;;;;;;3.33;2.08;;;12.70;88.90;;;;;;5025042;28;20066;-78
2023/04/30 11:48:42;;;;;;;3.92;1.90;;;13.00;90.00;;;;;;5035367;28;20033;-79
2023/04/30 11:51:14;;;;;;;4.65;1.92;;;12.90;85.60;;;;;;5029489;28;20033;-78
2023/04/30 11:53:40;;;;;;;6.00;2.45;;;13.00;87.70;;;;;;5033225;28;20018;-77
2023/04/30 11:56:06;;;;;;;4.13;2.30;;;12.90;84.40;;;;;;5030546;28;20029;-77
2023/04/30 11:58:37;;;;;;;3.38;2.33;;;12.80;88.80;;;;;;5021502;28;20064;-77
2023/04/30 12:01:08;;;;;;;6.30;2.42;;;12.90;91.10;;;;;;5012424;28;20396;-77
2023/04/30 12:03:40;;;;;;;6.03;2.65;;;13.10;88.70;;;;;;5012478;28;20021;-77
2023/04/30 12:06:08;;;;;;;4.00;2.20;;;13.20;85.10;;;;;;5014174;28;20036;-77
2023/04/30 12:08:34;;;;;;;3.25;1.92;;;13.20;86.20;;;;;;5026100;28;20563;-79
2023/04/30 12:11:00;;;;;;;4.25;2.10;;;13.50;87.50;;;;;;5017870;28;20022;-77
2023/04/30 12:13:25;;;;;;;4.82;2.33;;;13.60;89.30;;;;;;5013263;28;20041;-75
2023/04/30 12:15:58;;;;;;;5.93;2.53;;;13.60;87.50;;;;;;5022570;28;20017;-77
2023/04/30 12:18:25;;;;;;;5.22;2.45;;;13.50;86.90;;;;;;5032931;28;20096;-77
2023/04/30 12:20:51;;;;;;;3.05;2.08;;;13.60;88.10;;;;;;5033087;28;20029;-78
2023/04/30 12:23:17;;;;;;;3.47;2.50;;;13.60;86.60;;;;;;5012874;28;20025;-78
2023/04/30 12:25:42;;;;;;;3.70;2.42;;;13.90;88.50;;;;;;5013155;28;20056;-78
2023/04/30 12:28:10;;;;;;;4.38;2.50;;;14.00;86.10;;;;;;5036350;28;20029;-78
2023/04/30 12:30:36;;;;;;;2.55;1.98;;;14.00;84.70;;;;;;5013795;28;20069;-77
2023/04/30 12:33:02;;;;;;;4.35;2.08;;;14.00;82.60;;;;;;5040300;28;20057;-77
2023/04/30 12:35:30;;;;;;;5.32;1.98;;;13.90;85.70;;;;;;5024699;28;20025;-78
2023/04/30 12:38:06;;;;;;;4.30;2.38;;;13.80;81.80;;;;;;5019254;28;20029;-78
2023/04/30 12:40:32;;;;;;;;;;;13.70;79.60;;;;;;5028403;28;20080;-79
2023/04/30 12:43:03;;;;;;;3.75;1.83;;;13.50;82.10;;;;;;5020435;28;19917;-78
2023/04/30 12:45:52;;;;;;;3.97;1.70;;;13.80;84.80;;;;;;5011910;28;20030;-79
2023/04/30 12:48:23;;;;;;;4.20;2.15;;;14.10;81.40;;;;;;5014450;28;20029;-78
2023/04/30 12:50:58;;;;;;;2.80;1.98;;;14.40;84.20;;;;;;5024221;28;20116;-78
2023/04/30 12:53:24;;;;;;;5.07;2.40;;;14.60;77.70;;;;;;5038454;28;20072;-78